createdAt,value
2022-08-22T00:00:13.528Z,5.22
2022-08-22T00:02:56.264Z,5.10
2022-08-22T00:02:58.382Z,5.60
2022-08-22T00:03:12.288Z,5.50
2022-08-22T00:03:18.620Z,6.32
2022-08-22T00:06:04.018Z,5.60
2022-08-22T00:08:46.799Z,5.18
2022-08-22T00:11:27.065Z,5.70
2022-08-22T00:14:02.317Z,6.00
2022-08-22T00:16:42.496Z,5.75
2022-08-22T00:19:26.399Z,5.43
2022-08-22T00:22:03.957Z,6.57
2022-08-22T00:24:39.344Z,5.57
2022-08-22T00:27:16.947Z,5.75
2022-08-22T00:29:53.487Z,5.25
2022-08-22T00:32:31.771Z,5.82
2022-08-22T00:35:09.950Z,5.80
2022-08-22T00:37:44.997Z,5.65
2022-08-22T00:40:36.616Z,5.60
2022-08-22T00:43:59.621Z,6.20
2022-08-22T00:47:10.361Z,5.68
2022-08-22T00:53:00.798Z,5.70
2022-08-22T00:55:50.543Z,6.13
2022-08-22T01:02:06.476Z,6.53
2022-08-22T01:04:54.037Z,5.70
2022-08-22T01:07:52.988Z,5.43
2022-08-22T01:10:43.992Z,5.32
2022-08-22T01:13:38.215Z,6.15
2022-08-22T01:16:29.081Z,5.68
2022-08-22T01:19:25.791Z,4.93
2022-08-22T01:22:48.308Z,6.75
2022-08-22T01:26:25.470Z,6.13
2022-08-22T01:29:37.106Z,5.43
2022-08-22T01:33:16.638Z,6.57
2022-08-22T01:36:20.876Z,7.30
2022-08-22T01:39:50.864Z,6.05
2022-08-22T01:42:43.836Z,5.63
2022-08-22T01:45:56.770Z,5.68
2022-08-22T01:48:37.954Z,5.93
2022-08-22T01:51:21.233Z,6.15
2022-08-22T01:54:00.088Z,6.60
2022-08-22T01:56:37.504Z,6.85
2022-08-22T01:59:11.300Z,6.22
2022-08-22T02:02:02.110Z,6.38
2022-08-22T02:04:40.809Z,6.13
2022-08-22T02:07:21.955Z,6.05
2022-08-22T02:10:14.363Z,7.63
2022-08-22T02:15:28.258Z,5.85
2022-08-22T02:18:19.979Z,5.82
2022-08-22T02:21:07.036Z,6.32
2022-08-22T02:23:52.527Z,6.38
2022-08-22T02:26:39.135Z,6.05
2022-08-22T02:29:15.728Z,5.82
2022-08-22T02:31:56.992Z,6.93
2022-08-22T02:34:40.380Z,6.40
2022-08-22T02:37:20.146Z,5.80
2022-08-22T02:40:04.440Z,6.50
2022-08-22T02:42:43.828Z,6.15
2022-08-22T02:45:36.132Z,6.70
2022-08-22T02:48:16.588Z,5.75
2022-08-22T02:50:54.002Z,6.72
2022-08-22T02:53:34.602Z,7.32
2022-08-22T02:56:11.958Z,5.97
2022-08-22T02:58:49.995Z,6.57
2022-08-22T03:01:40.122Z,6.88
2022-08-22T03:04:28.977Z,5.90
2022-08-22T03:07:16.091Z,6.50
2022-08-22T03:09:53.130Z,7.45
2022-08-22T03:12:33.588Z,7.07
2022-08-22T03:15:12.093Z,6.78
2022-08-22T03:17:51.458Z,7.15
2022-08-22T03:20:46.489Z,6.57
2022-08-22T03:23:27.590Z,6.65
2022-08-22T03:26:07.686Z,6.55
2022-08-22T03:28:59.227Z,6.22
2022-08-22T03:31:33.447Z,6.95
2022-08-22T03:34:23.458Z,5.95
2022-08-22T03:37:12.315Z,6.20
2022-08-22T03:39:54.588Z,6.22
2022-08-22T03:43:08.756Z,7.97
2022-08-22T03:46:36.449Z,7.40
2022-08-22T03:54:30.488Z,9.00
2022-08-22T03:57:50.642Z,8.32
2022-08-22T04:00:48.813Z,8.98
2022-08-22T04:04:20.508Z,8.93
2022-08-22T04:07:35.575Z,8.63
2022-08-22T04:11:02.688Z,10.75
2022-08-22T04:14:14.895Z,10.90
2022-08-22T04:17:24.661Z,10.20
2022-08-22T04:20:41.857Z,10.93
2022-08-22T04:23:50.508Z,11.65
2022-08-22T04:26:31.198Z,11.95
2022-08-22T04:29:10.711Z,11.05
2022-08-22T04:31:48.863Z,10.60
2022-08-22T04:34:27.295Z,11.10
2022-08-22T04:37:01.334Z,10.73
2022-08-22T04:39:41.728Z,10.00
2022-08-22T04:42:32.371Z,10.15
2022-08-22T04:45:11.368Z,10.60
2022-08-22T04:47:47.236Z,12.20
2022-08-22T04:50:30.825Z,11.70
2022-08-22T04:53:28.033Z,11.80
2022-08-22T04:56:12.885Z,10.25
2022-08-22T04:58:51.135Z,10.73
2022-08-22T05:01:25.847Z,11.45
2022-08-22T05:04:01.989Z,11.40
2022-08-22T05:06:35.679Z,11.77
2022-08-22T05:09:16.074Z,12.20
2022-08-22T05:11:48.966Z,11.85
2022-08-22T05:14:26.496Z,12.07
2022-08-22T05:16:59.238Z,12.10
2022-08-22T05:19:35.074Z,11.95
2022-08-22T05:22:06.349Z,11.25
2022-08-22T05:24:42.357Z,12.23
2022-08-22T05:27:15.996Z,11.00
2022-08-22T05:29:51.205Z,11.55
2022-08-22T05:32:29.229Z,11.48
2022-08-22T05:35:03.254Z,10.27
2022-08-22T05:37:41.780Z,11.07
2022-08-22T05:40:21.517Z,11.10
2022-08-22T05:42:51.848Z,11.30
2022-08-22T05:45:23.812Z,10.77
2022-08-22T05:47:59.477Z,10.20
2022-08-22T05:50:38.194Z,9.63
2022-08-22T05:53:14.573Z,9.25
2022-08-22T05:55:57.254Z,9.88
2022-08-22T05:58:50.033Z,9.50
2022-08-22T06:01:31.414Z,8.43
2022-08-22T06:04:18.892Z,8.90
2022-08-22T06:06:56.613Z,8.82
2022-08-22T06:09:35.625Z,9.05
2022-08-22T06:12:21.786Z,9.02
2022-08-22T06:15:03.450Z,8.90
2022-08-22T06:17:48.952Z,8.75
2022-08-22T06:20:29.545Z,9.95
2022-08-22T06:23:03.574Z,9.30
2022-08-22T06:25:36.501Z,8.23
2022-08-22T06:28:11.282Z,9.55
2022-08-22T06:30:42.345Z,10.15
2022-08-22T06:33:20.502Z,7.80
2022-08-22T06:36:11.854Z,8.40
2022-08-22T06:38:59.064Z,7.35
2022-08-22T06:41:32.133Z,8.05
2022-08-22T06:44:02.796Z,7.95
2022-08-22T06:46:37.176Z,8.25
2022-08-22T06:49:10.886Z,7.82
2022-08-22T06:53:47.617Z,7.95
2022-08-22T06:56:25.620Z,8.13
2022-08-22T06:59:00.455Z,8.77
2022-08-22T07:01:36.973Z,8.75
2022-08-22T07:04:10.798Z,8.68
2022-08-22T07:06:43.545Z,9.02
2022-08-22T07:09:26.515Z,8.55
2022-08-22T07:11:59.441Z,8.77
2022-08-22T07:14:33.355Z,7.85
2022-08-22T07:17:06.016Z,7.70
2022-08-22T07:19:38.358Z,8.45
2022-08-22T07:22:15.883Z,7.88
2022-08-22T07:24:52.924Z,8.18
2022-08-22T07:27:48.855Z,8.15
2022-08-22T07:30:27.953Z,7.97
2022-08-22T07:33:21.285Z,8.15
2022-08-22T07:36:02.219Z,8.40
2022-08-22T07:38:43.145Z,7.53
2022-08-22T07:41:20.201Z,7.80
2022-08-22T07:43:54.325Z,6.97
2022-08-22T07:46:32.371Z,6.55
2022-08-22T07:49:15.583Z,7.10
2022-08-22T07:51:49.897Z,7.22
2022-08-22T07:54:27.109Z,7.07
2022-08-22T07:57:04.531Z,6.90
2022-08-22T07:59:37.985Z,7.47
2022-08-22T08:02:12.912Z,7.10
2022-08-22T08:04:43.947Z,6.97
2022-08-22T08:07:18.631Z,7.43
2022-08-22T08:09:53.164Z,6.85
2022-08-22T08:12:33.207Z,7.43
2022-08-22T08:15:06.510Z,6.82
2022-08-22T08:17:38.094Z,7.57
2022-08-22T08:20:12.518Z,7.90
2022-08-22T08:22:45.803Z,8.10
2022-08-22T08:25:19.403Z,7.70
2022-08-22T08:28:09.831Z,6.85
2022-08-22T08:30:46.061Z,7.00
2022-08-22T08:33:24.757Z,7.97
2022-08-22T08:36:02.418Z,8.05
2022-08-22T08:38:39.674Z,7.95
2022-08-22T08:41:58.939Z,8.27
2022-08-22T08:45:18.529Z,7.35
2022-08-22T08:48:09.429Z,8.45
2022-08-22T08:51:12.066Z,7.90
2022-08-22T08:54:10.616Z,7.53
2022-08-22T08:56:54.282Z,7.93
2022-08-22T08:59:44.158Z,7.93
2022-08-22T09:02:50.203Z,8.45
2022-08-22T09:05:59.929Z,7.97
2022-08-22T09:09:05.299Z,7.70
2022-08-22T09:12:17.862Z,7.40
2022-08-22T09:15:14.327Z,7.38
2022-08-22T09:18:23.398Z,7.55
2022-08-22T09:21:35.503Z,7.82
2022-08-22T09:24:54.037Z,8.95
2022-08-22T09:27:36.141Z,8.25
2022-08-22T09:32:58.245Z,8.05
2022-08-22T09:35:42.543Z,7.43
2022-08-22T09:38:34.724Z,8.45
2022-08-22T09:41:21.725Z,7.38
2022-08-22T09:44:01.945Z,7.60
2022-08-22T09:46:42.999Z,7.30
2022-08-22T09:49:22.135Z,7.53
2022-08-22T09:53:57.824Z,6.82
2022-08-22T09:56:39.781Z,5.95
2022-08-22T09:59:19.119Z,6.50
2022-08-22T10:01:59.544Z,6.88
2022-08-22T10:04:58.241Z,6.45
2022-08-22T10:08:02.993Z,6.30
2022-08-22T10:10:56.456Z,5.90
2022-08-22T10:13:44.644Z,5.72
2022-08-22T10:16:38.773Z,5.78
2022-08-22T10:19:19.773Z,5.82
2022-08-22T10:22:22.682Z,5.60
2022-08-22T10:25:24.658Z,6.18
2022-08-22T10:28:18.980Z,5.93
2022-08-22T10:31:03.736Z,5.90
2022-08-22T10:33:39.984Z,5.90
2022-08-22T10:36:14.437Z,6.30
2022-08-22T10:38:49.398Z,6.10
2022-08-22T10:41:33.009Z,6.28
2022-08-22T10:44:16.027Z,7.93
2022-08-22T10:46:55.213Z,8.10
2022-08-22T10:49:34.691Z,8.43
2022-08-22T10:52:15.495Z,8.50
2022-08-22T10:54:49.917Z,8.40
2022-08-22T10:57:50.679Z,8.95
2022-08-22T11:00:50.037Z,9.25
2022-08-22T11:03:26.579Z,9.23
2022-08-22T11:06:01.201Z,9.70
2022-08-22T11:09:15.722Z,9.13
2022-08-22T11:11:54.447Z,9.05
2022-08-22T11:14:58.486Z,9.18
2022-08-22T11:18:20.769Z,9.27
2022-08-22T11:21:01.868Z,9.25
2022-08-22T11:23:45.238Z,7.82
2022-08-22T11:26:38.307Z,9.35
2022-08-22T11:29:28.855Z,9.73
2022-08-22T11:32:07.969Z,8.88
2022-08-22T11:34:57.422Z,9.23
2022-08-22T11:37:56.374Z,7.43
2022-08-22T11:40:42.671Z,7.63
2022-08-22T11:43:46.424Z,9.40
2022-08-22T11:46:25.556Z,8.80
2022-08-22T11:49:32.630Z,8.68
2022-08-22T11:52:18.779Z,8.52
2022-08-22T11:55:21.997Z,8.52
2022-08-22T11:57:56.022Z,8.55
2022-08-22T12:00:36.231Z,8.02
2022-08-22T12:03:28.481Z,8.18
2022-08-22T12:06:05.459Z,8.23
2022-08-22T12:09:23.078Z,6.40
2022-08-22T12:12:09.807Z,7.70
2022-08-22T12:14:48.341Z,6.95
2022-08-22T12:17:55.080Z,6.78
2022-08-22T12:20:55.215Z,6.68
2022-08-22T12:23:55.735Z,7.30
2022-08-22T12:26:37.906Z,7.07
2022-08-22T12:29:33.782Z,6.80
2022-08-22T12:33:09.997Z,6.45
2022-08-22T12:36:19.056Z,6.00
2022-08-22T12:39:24.737Z,6.05
2022-08-22T12:42:52.437Z,6.05
2022-08-22T12:45:44.421Z,6.43
2022-08-22T12:48:37.371Z,5.40
2022-08-22T12:54:17.177Z,5.47
2022-08-22T12:56:57.793Z,5.10
2022-08-22T12:59:32.353Z,5.10
2022-08-22T13:02:05.014Z,6.00
2022-08-22T13:04:36.877Z,6.50
2022-08-22T13:07:22.618Z,6.07
2022-08-22T13:09:59.198Z,6.00
2022-08-22T13:12:34.506Z,4.53
2022-08-22T13:15:29.481Z,5.53
2022-08-22T13:18:25.248Z,5.65
2022-08-22T13:23:27.969Z,5.35
2022-08-22T13:26:31.993Z,5.75
2022-08-22T13:29:25.034Z,5.65
2022-08-22T13:32:02.125Z,6.22
2022-08-22T13:34:43.425Z,6.18
2022-08-22T13:37:24.349Z,6.40
2022-08-22T13:40:01.116Z,6.20
2022-08-22T13:42:40.098Z,6.82
2022-08-22T13:45:19.279Z,6.57
2022-08-22T13:47:59.626Z,6.93
2022-08-22T13:50:37.482Z,6.85
2022-08-22T13:53:31.251Z,6.25
2022-08-22T13:56:15.778Z,5.97
2022-08-22T13:58:51.794Z,6.65
2022-08-22T14:01:39.222Z,6.20
2022-08-22T14:04:33.292Z,5.38
2022-08-22T14:07:34.382Z,5.45
2022-08-22T14:10:14.937Z,5.85
2022-08-22T14:13:08.478Z,5.78
2022-08-22T14:15:44.811Z,5.53
2022-08-22T14:18:22.288Z,5.40
2022-08-22T14:21:40.669Z,5.45
2022-08-22T14:24:20.739Z,5.10
2022-08-22T14:27:05.431Z,6.13
2022-08-22T14:29:43.854Z,5.32
2022-08-22T14:32:41.989Z,5.45
2022-08-22T14:35:23.409Z,4.85
2022-08-22T14:38:17.297Z,4.82
2022-08-22T14:40:53.825Z,5.53
2022-08-22T14:43:48.711Z,5.28
2022-08-22T14:46:27.606Z,6.15
2022-08-22T14:49:30.892Z,5.95
2022-08-22T14:52:10.150Z,6.47
2022-08-22T14:54:50.943Z,6.07
2022-08-22T14:57:21.068Z,5.88
2022-08-22T14:59:53.085Z,5.25
2022-08-22T15:02:30.285Z,5.07
2022-08-22T15:05:21.137Z,5.13
2022-08-22T15:07:59.523Z,6.00
2022-08-22T15:10:34.507Z,6.20
2022-08-22T15:13:09.079Z,5.53
2022-08-22T15:15:52.517Z,5.82
2022-08-22T15:18:39.041Z,5.07
2022-08-22T15:21:16.037Z,5.22
2022-08-22T15:23:48.796Z,4.93
2022-08-22T15:26:30.489Z,5.75
2022-08-22T15:29:09.641Z,6.28
2022-08-22T15:31:46.489Z,5.78
2022-08-22T15:34:26.776Z,6.22
2022-08-22T15:37:32.689Z,6.75
2022-08-22T15:40:13.451Z,5.82
2022-08-22T15:42:47.254Z,5.93
2022-08-22T15:45:34.058Z,6.32
2022-08-22T15:48:09.000Z,6.43
2022-08-22T15:54:00.969Z,5.13
2022-08-22T15:56:35.564Z,5.43
2022-08-22T15:59:53.707Z,5.88
2022-08-22T16:02:35.436Z,5.97
2022-08-22T16:05:27.334Z,6.32
2022-08-22T16:08:05.937Z,5.53
2022-08-22T16:10:43.858Z,5.70
2022-08-22T16:13:43.078Z,5.38
2022-08-22T16:16:56.535Z,5.50
2022-08-22T16:19:27.556Z,5.93
2022-08-22T16:22:20.673Z,5.55
2022-08-22T16:25:11.524Z,5.72
2022-08-22T16:27:59.245Z,5.53
2022-08-22T16:30:40.867Z,6.13
2022-08-22T16:33:17.938Z,6.40
2022-08-22T16:36:20.885Z,6.32
2022-08-22T16:38:54.331Z,5.90
2022-08-22T16:41:42.055Z,6.05
2022-08-22T16:44:45.316Z,6.20
2022-08-22T16:47:19.346Z,6.85
2022-08-22T16:50:12.663Z,6.03
2022-08-22T16:53:07.374Z,6.50
2022-08-22T16:55:55.559Z,7.05
2022-08-22T16:59:14.098Z,6.55
2022-08-22T17:02:40.416Z,6.55
2022-08-22T17:05:30.960Z,7.05
2022-08-22T17:08:34.277Z,7.10
2022-08-22T17:11:18.799Z,6.75
2022-08-22T17:14:15.164Z,7.72
2022-08-22T17:17:00.912Z,7.57
2022-08-22T17:20:03.255Z,6.88
2022-08-22T17:22:42.936Z,7.03
2022-08-22T17:25:23.992Z,6.53
2022-08-22T17:28:09.934Z,6.78
2022-08-22T17:30:46.947Z,6.47
2022-08-22T17:33:34.703Z,6.70
2022-08-22T17:36:21.717Z,6.95
2022-08-22T17:39:15.039Z,6.90
2022-08-22T17:41:54.635Z,6.20
2022-08-22T17:44:39.395Z,7.25
2022-08-22T17:47:17.531Z,6.90
2022-08-22T17:49:58.631Z,7.50
2022-08-22T17:52:39.412Z,6.72
2022-08-22T17:55:19.370Z,6.57
2022-08-22T17:57:54.758Z,7.35
2022-08-22T18:00:31.634Z,7.35
2022-08-22T18:03:10.418Z,7.07
2022-08-22T18:05:50.512Z,6.80
2022-08-22T18:08:38.053Z,6.78
2022-08-22T18:11:21.751Z,7.85
2022-08-22T18:13:58.073Z,7.00
2022-08-22T18:16:44.459Z,6.90
2022-08-22T18:19:44.569Z,6.70
2022-08-22T18:22:29.735Z,6.78
2022-08-22T18:25:08.056Z,6.50
2022-08-22T18:27:49.137Z,7.10
2022-08-22T18:30:22.986Z,6.38
2022-08-22T18:33:00.316Z,6.53
2022-08-22T18:35:42.181Z,6.40
2022-08-22T18:38:26.634Z,5.82
2022-08-22T18:41:14.787Z,7.43
2022-08-22T18:43:48.461Z,6.97
2022-08-22T18:46:46.392Z,7.35
2022-08-22T18:49:55.485Z,7.10
2022-08-22T18:53:45.993Z,6.78
2022-08-22T18:56:40.690Z,7.28
2022-08-22T18:59:50.672Z,6.43
2022-08-22T19:03:09.654Z,6.95
2022-08-22T19:06:16.490Z,6.75
2022-08-22T19:09:22.406Z,6.63
2022-08-22T19:12:08.885Z,6.70
2022-08-22T19:15:14.292Z,7.20
2022-08-22T19:18:27.888Z,6.70
2022-08-22T19:21:45.576Z,6.68
2022-08-22T19:25:03.078Z,6.68
2022-08-22T19:27:35.231Z,6.57
2022-08-22T19:33:06.902Z,6.47
2022-08-22T19:36:06.945Z,6.85
2022-08-22T19:39:10.633Z,6.45
2022-08-22T19:41:54.285Z,6.18
2022-08-22T19:44:50.206Z,5.70
2022-08-22T19:47:32.605Z,5.30
2022-08-22T19:52:58.726Z,4.55
2022-08-22T19:55:58.474Z,5.07
2022-08-22T19:58:48.021Z,5.97
2022-08-22T20:01:45.970Z,5.72
2022-08-22T20:04:55.499Z,5.35
2022-08-22T20:07:53.135Z,4.70
2022-08-22T20:10:38.518Z,6.07
2022-08-22T20:13:12.602Z,5.20
2022-08-22T20:16:13.677Z,5.28
2022-08-22T20:19:20.159Z,5.18
2022-08-22T20:22:00.205Z,5.72
2022-08-22T20:24:40.258Z,5.10
2022-08-22T20:27:17.929Z,4.50
2022-08-22T20:29:56.340Z,4.82
2022-08-22T20:32:28.266Z,5.10
2022-08-22T20:35:00.640Z,5.40
2022-08-22T20:38:03.357Z,4.55
2022-08-22T20:40:54.496Z,4.50
2022-08-22T20:43:34.652Z,5.15
2022-08-22T20:46:21.484Z,4.93
2022-08-22T20:48:57.346Z,4.90
2022-08-22T20:51:29.778Z,4.57
2022-08-22T20:54:10.187Z,4.97
2022-08-22T20:56:52.957Z,4.82
2022-08-22T20:59:37.334Z,4.65
2022-08-22T21:02:17.588Z,5.30
2022-08-22T21:05:00.314Z,4.78
2022-08-22T21:07:34.304Z,4.85
2022-08-22T21:10:26.178Z,4.63
2022-08-22T21:13:10.418Z,4.47
2022-08-22T21:15:47.333Z,4.50
2022-08-22T21:18:28.999Z,4.80
2022-08-22T21:21:16.906Z,5.63
2022-08-22T21:23:50.559Z,4.82
2022-08-22T21:26:27.141Z,4.82
2022-08-22T21:29:01.960Z,4.85
2022-08-22T21:31:34.759Z,4.47
2022-08-22T21:34:06.154Z,4.63
2022-08-22T21:36:40.878Z,5.00
2022-08-22T21:39:18.016Z,5.03
2022-08-22T21:41:53.900Z,4.70
2022-08-22T21:44:35.222Z,4.90
2022-08-22T21:47:30.973Z,4.43
2022-08-22T21:53:33.284Z,5.32
2022-08-22T21:56:15.366Z,4.57
2022-08-22T21:58:46.596Z,4.17
2022-08-22T22:01:32.352Z,4.90
2022-08-22T22:04:02.213Z,4.45
2022-08-22T22:06:31.699Z,5.00
2022-08-22T22:09:02.787Z,4.93
2022-08-22T22:11:32.337Z,5.88
2022-08-22T22:14:01.864Z,6.20
2022-08-22T22:16:32.853Z,6.57
2022-08-22T22:19:02.897Z,6.30
2022-08-22T22:21:32.316Z,7.25
2022-08-22T22:24:03.238Z,7.07
2022-08-22T22:26:33.954Z,7.32
2022-08-22T22:29:05.214Z,5.60
2022-08-22T22:31:34.687Z,6.70
2022-08-22T22:34:04.254Z,6.22
2022-08-22T22:36:33.845Z,6.15
2022-08-22T22:39:08.453Z,6.15
2022-08-22T22:41:39.528Z,5.57
2022-08-22T22:44:08.999Z,6.32
2022-08-22T22:46:38.614Z,6.43
2022-08-22T22:49:08.132Z,6.40
2022-08-22T22:51:37.494Z,6.72
2022-08-22T22:54:08.526Z,6.53
2022-08-22T22:56:40.834Z,6.38
2022-08-22T22:59:13.133Z,6.63
2022-08-22T23:04:32.692Z,5.72
2022-08-22T23:07:02.385Z,5.40
2022-08-22T23:09:38.797Z,5.72
2022-08-22T23:12:15.976Z,5.45
2022-08-22T23:14:45.785Z,5.47
2022-08-22T23:17:16.283Z,5.55
2022-08-22T23:19:46.506Z,5.45
2022-08-22T23:22:17.437Z,5.70
2022-08-22T23:24:50.305Z,5.70
2022-08-22T23:27:21.210Z,5.45
2022-08-22T23:29:51.071Z,5.63
2022-08-22T23:32:20.662Z,5.20
2022-08-22T23:34:50.667Z,5.20
2022-08-22T23:37:23.955Z,5.60
2022-08-22T23:39:54.734Z,5.80
2022-08-22T23:42:24.248Z,5.80
2022-08-22T23:44:53.619Z,5.32
2022-08-22T23:47:22.936Z,5.32
2022-08-22T23:49:52.546Z,5.60
2022-08-22T23:52:22.180Z,5.90
2022-08-22T23:54:54.645Z,6.00
2022-08-22T23:57:27.820Z,5.65
2022-08-22T23:59:59.050Z,5.95
